createdAt,value
2018-12-29T00:06:05.858Z,73.86
2018-12-29T00:09:14.264Z,74.93
2018-12-29T00:12:03.502Z,73.99
2018-12-29T00:14:55.181Z,73.62
2018-12-29T00:18:25.830Z,74.28
2018-12-29T00:21:15.122Z,73.55
2018-12-29T00:24:04.549Z,73.44
2018-12-29T00:27:13.008Z,74.00
2018-12-29T00:30:02.373Z,73.65
2018-12-29T00:32:51.635Z,73.45
2018-12-29T00:35:40.983Z,73.76
2018-12-29T00:38:30.269Z,73.50
2018-12-29T00:41:19.791Z,74.20
2018-12-29T00:43:49.708Z,74.09
2018-12-29T00:46:39.276Z,75.12
2018-12-29T00:49:28.704Z,73.71
2018-12-29T00:52:17.927Z,74.41
2018-12-29T00:55:26.497Z,74.83
2018-12-29T01:01:44.622Z,75.13
2018-12-29T01:04:33.972Z,75.55
2018-12-29T01:07:23.297Z,76.05
2018-12-29T01:10:12.564Z,76.54
2018-12-29T01:13:01.757Z,75.54
2018-12-29T01:15:50.989Z,75.23
2018-12-29T01:18:32.993Z,75.16
2018-12-29T01:21:22.295Z,74.91
2018-12-29T01:24:11.735Z,75.46
2018-12-29T01:27:00.992Z,76.86
2018-12-29T01:29:50.144Z,75.24
2018-12-29T01:32:39.328Z,76.08
2018-12-29T01:35:28.507Z,75.04
2018-12-29T01:38:17.718Z,75.35
2018-12-29T01:41:06.907Z,76.79
2018-12-29T01:43:56.177Z,76.36
2018-12-29T01:46:45.481Z,76.11
2018-12-29T01:49:34.713Z,76.45
2018-12-29T01:52:23.951Z,75.82
2018-12-29T01:55:13.246Z,75.60
2018-12-29T01:58:02.518Z,76.48
2018-12-29T02:00:51.873Z,75.70
2018-12-29T02:03:41.467Z,77.06
2018-12-29T02:06:30.658Z,76.07
2018-12-29T02:09:19.935Z,75.02
2018-12-29T02:12:09.094Z,75.48
2018-12-29T02:14:58.293Z,75.87
2018-12-29T02:17:47.544Z,76.54
2018-12-29T02:20:36.724Z,76.70
2018-12-29T02:23:26.248Z,75.33
2018-12-29T02:25:56.186Z,76.17
2018-12-29T02:28:26.095Z,74.84
2018-12-29T02:30:55.995Z,75.71
2018-12-29T02:33:25.976Z,75.87
2018-12-29T02:35:56.093Z,76.32
2018-12-29T02:38:26.235Z,76.15
2018-12-29T02:40:56.370Z,76.21
2018-12-29T02:43:45.551Z,76.10
2018-12-29T02:46:34.991Z,76.66
2018-12-29T02:49:04.889Z,75.30
2018-12-29T02:51:34.805Z,74.34
2018-12-29T02:54:04.692Z,75.07
2018-12-29T02:56:34.706Z,75.98
2018-12-29T02:59:04.607Z,74.77
2018-12-29T03:01:34.578Z,74.83
2018-12-29T03:04:04.465Z,75.88
2018-12-29T03:06:34.595Z,75.39
2018-12-29T03:09:05.437Z,75.16
2018-12-29T03:11:35.442Z,75.75
2018-12-29T03:14:05.564Z,75.46
2018-12-29T03:16:35.712Z,74.75
2018-12-29T03:19:05.659Z,75.98
2018-12-29T03:21:35.806Z,75.37
2018-12-29T03:24:05.710Z,74.46
2018-12-29T03:26:35.587Z,75.07
2018-12-29T03:29:05.554Z,75.52
2018-12-29T03:31:54.745Z,75.11
2018-12-29T03:34:43.914Z,75.24
2018-12-29T03:37:33.428Z,75.62
2018-12-29T03:40:22.593Z,75.93
2018-12-29T03:43:31.011Z,75.68
2018-12-29T03:46:20.166Z,75.13
2018-12-29T03:49:09.505Z,75.78
2018-12-29T03:51:58.656Z,75.08
2018-12-29T03:54:47.813Z,75.35
2018-12-29T03:57:36.966Z,74.22
2018-12-29T04:00:26.132Z,73.16
2018-12-29T04:03:15.298Z,73.45
2018-12-29T04:06:04.459Z,73.82
2018-12-29T04:09:32.060Z,74.84
2018-12-29T04:12:24.422Z,75.81
2018-12-29T04:14:54.333Z,75.14
2018-12-29T04:17:24.258Z,73.89
2018-12-29T04:19:54.172Z,73.82
2018-12-29T04:22:24.079Z,73.33
2018-12-29T04:24:54.174Z,75.26
2018-12-29T04:27:43.566Z,75.28
2018-12-29T04:30:32.717Z,74.88
2018-12-29T04:33:21.913Z,74.41
2018-12-29T04:36:11.074Z,74.60
2018-12-29T04:39:00.241Z,75.43
2018-12-29T04:41:49.417Z,74.80
2018-12-29T04:44:38.588Z,74.47
2018-12-29T04:47:27.932Z,75.36
2018-12-29T04:50:17.096Z,75.02
2018-12-29T04:53:06.309Z,75.22
2018-12-29T04:55:55.463Z,74.68
2018-12-29T04:58:44.873Z,75.90
2018-12-29T05:01:34.127Z,75.28
2018-12-29T05:04:23.300Z,76.05
2018-12-29T05:07:12.490Z,76.42
2018-12-29T05:10:01.679Z,75.55
2018-12-29T05:12:50.873Z,75.61
2018-12-29T05:15:40.280Z,74.89
2018-12-29T05:18:22.720Z,75.32
2018-12-29T05:21:12.252Z,77.17
2018-12-29T05:24:01.499Z,76.47
2018-12-29T05:26:50.616Z,76.17
2018-12-29T05:29:40.000Z,75.30
2018-12-29T05:32:29.436Z,75.38
2018-12-29T05:35:18.929Z,75.42
2018-12-29T05:41:22.825Z,74.93
2018-12-29T05:44:12.016Z,73.79
2018-12-29T05:47:01.619Z,74.12
2018-12-29T05:49:50.809Z,75.65
2018-12-29T05:52:39.989Z,73.90
2018-12-29T05:55:29.189Z,74.69
2018-12-29T05:58:18.346Z,75.77
2018-12-29T06:04:02.359Z,74.61
2018-12-29T06:06:51.542Z,74.84
2018-12-29T06:12:35.151Z,75.60
2018-12-29T06:15:05.533Z,75.54
2018-12-29T06:17:55.079Z,75.42
2018-12-29T06:20:44.233Z,75.14
2018-12-29T06:23:33.401Z,73.76
2018-12-29T06:26:22.578Z,74.68
2018-12-29T06:29:11.735Z,74.44
2018-12-29T06:32:00.941Z,76.71
2018-12-29T06:37:58.492Z,75.79
2018-12-29T06:40:47.670Z,77.06
2018-12-29T06:43:43.933Z,75.91
2018-12-29T06:46:35.182Z,74.77
2018-12-29T06:49:23.989Z,76.70
2018-12-29T06:52:13.233Z,75.65
2018-12-29T06:55:02.479Z,75.87
2018-12-29T06:57:51.678Z,76.80
2018-12-29T07:00:40.825Z,75.76
2018-12-29T07:03:30.310Z,75.84
2018-12-29T07:06:19.517Z,73.58
2018-12-29T07:09:08.683Z,74.87
2018-12-29T07:11:57.958Z,75.82
2018-12-29T07:14:47.167Z,74.23
2018-12-29T07:17:36.648Z,74.46
2018-12-29T07:20:06.659Z,73.93
2018-12-29T07:22:36.638Z,73.14
2018-12-29T07:25:25.788Z,73.38
2018-12-29T07:28:14.961Z,73.53
2018-12-29T07:31:04.101Z,73.36
2018-12-29T07:33:53.623Z,73.11
2018-12-29T07:36:42.795Z,72.78
2018-12-29T07:45:21.974Z,72.46
2018-12-29T07:48:11.151Z,72.83
2018-12-29T07:51:00.648Z,72.59
2018-12-29T07:53:49.830Z,72.40
2018-12-29T07:56:39.284Z,72.87
2018-12-29T07:59:28.441Z,72.65
2018-12-29T08:02:17.590Z,72.32
2018-12-29T08:05:07.100Z,71.57
2018-12-29T08:07:56.277Z,72.66
2018-12-29T08:10:45.483Z,75.24
2018-12-29T08:13:35.109Z,73.07
2018-12-29T08:16:24.223Z,73.83
2018-12-29T08:19:06.260Z,73.26
2018-12-29T08:21:55.374Z,74.29
2018-12-29T08:24:44.560Z,75.77
2018-12-29T08:27:34.289Z,73.77
2018-12-29T08:30:23.456Z,73.66
2018-12-29T08:33:13.074Z,72.65
2018-12-29T08:36:02.507Z,74.02
2018-12-29T08:38:51.759Z,73.24
2018-12-29T08:44:49.985Z,73.31
2018-12-29T08:47:20.014Z,73.23
2018-12-29T08:50:13.272Z,73.41
2018-12-29T08:53:20.522Z,73.76
2018-12-29T08:56:09.716Z,74.72
2018-12-29T08:58:58.878Z,73.66
2018-12-29T09:01:48.061Z,73.47
2018-12-29T09:04:37.283Z,74.45
2018-12-29T09:07:26.461Z,73.28
2018-12-29T09:10:16.090Z,73.35
2018-12-29T09:13:06.102Z,76.00
2018-12-29T09:18:49.552Z,73.16
2018-12-29T09:21:34.167Z,73.77
2018-12-29T09:24:23.339Z,73.01
2018-12-29T09:27:12.785Z,73.32
2018-12-29T09:30:01.947Z,75.35
2018-12-29T09:32:51.558Z,74.39
2018-12-29T09:35:40.767Z,78.13
2018-12-29T09:38:30.003Z,75.29
2018-12-29T09:41:19.453Z,74.87
2018-12-29T09:44:27.686Z,73.54
2018-12-29T09:47:19.760Z,73.29
2018-12-29T09:50:08.187Z,73.22
2018-12-29T09:52:57.375Z,73.31
2018-12-29T09:55:46.598Z,73.62
2018-12-29T10:01:30.066Z,77.25
2018-12-29T10:04:19.269Z,74.13
2018-12-29T10:07:08.830Z,73.53
2018-12-29T10:09:58.152Z,73.72
2018-12-29T10:12:47.660Z,73.36
2018-12-29T10:15:36.958Z,74.83
2018-12-29T10:18:18.878Z,76.73
2018-12-29T10:21:08.436Z,74.17
2018-12-29T10:23:57.853Z,75.05
2018-12-29T10:26:47.710Z,73.64
2018-12-29T10:29:37.226Z,76.16
2018-12-29T10:32:26.642Z,72.63
2018-12-29T10:35:15.913Z,72.50
2018-12-29T10:38:05.351Z,74.09
2018-12-29T10:40:54.544Z,73.85
2018-12-29T10:47:00.202Z,75.53
2018-12-29T10:49:49.525Z,75.51
2018-12-29T10:52:39.121Z,76.62
2018-12-29T10:55:47.686Z,76.47
2018-12-29T10:58:56.147Z,76.81
2018-12-29T11:01:45.988Z,76.03
2018-12-29T11:04:35.354Z,77.10
2018-12-29T11:10:33.587Z,80.74
2018-12-29T11:13:23.041Z,77.00
2018-12-29T11:16:17.995Z,76.70
2018-12-29T11:18:48.561Z,76.95
2018-12-29T11:21:19.451Z,75.59
2018-12-29T11:23:50.515Z,75.28
2018-12-29T11:26:21.032Z,77.37
2018-12-29T11:28:52.083Z,76.60
2018-12-29T11:31:23.311Z,76.21
2018-12-29T11:33:53.971Z,75.71
2018-12-29T11:36:23.947Z,75.97
2018-12-29T11:38:53.924Z,74.40
2018-12-29T11:41:25.537Z,75.09
2018-12-29T11:43:58.263Z,76.29
2018-12-29T11:46:28.218Z,75.11
2018-12-29T11:48:58.354Z,74.92
2018-12-29T11:51:28.898Z,75.04
2018-12-29T11:53:58.911Z,74.82
2018-12-29T11:56:28.898Z,74.86
2018-12-29T11:58:58.814Z,76.13
2018-12-29T12:01:28.869Z,76.75
2018-12-29T12:03:59.189Z,75.06
2018-12-29T12:06:29.618Z,75.48
2018-12-29T12:09:00.171Z,75.18
2018-12-29T12:11:30.855Z,75.19
2018-12-29T12:14:01.261Z,75.91
2018-12-29T12:16:31.262Z,74.84
2018-12-29T12:19:01.328Z,74.70
2018-12-29T12:21:31.576Z,75.12
2018-12-29T12:24:01.940Z,75.60
2018-12-29T12:26:32.039Z,75.09
2018-12-29T12:29:02.082Z,75.17
2018-12-29T12:31:32.325Z,74.47
2018-12-29T12:34:02.705Z,74.95
2018-12-29T12:36:33.283Z,75.26
2018-12-29T12:39:22.925Z,76.04
2018-12-29T12:42:12.205Z,76.95
2018-12-29T12:45:01.689Z,75.75
2018-12-29T12:50:46.391Z,76.79
2018-12-29T12:53:35.642Z,76.36
2018-12-29T12:56:24.843Z,74.62
2018-12-29T12:59:14.128Z,72.73
2018-12-29T13:02:03.565Z,72.38
2018-12-29T13:04:53.129Z,73.16
2018-12-29T13:07:42.363Z,73.08
2018-12-29T13:10:31.598Z,72.04
2018-12-29T13:13:20.854Z,72.04
2018-12-29T13:19:11.224Z,71.23
2018-12-29T13:22:00.400Z,72.56
2018-12-29T13:24:49.688Z,73.03
2018-12-29T13:27:38.904Z,71.63
2018-12-29T13:30:28.518Z,70.98
2018-12-29T13:33:17.788Z,74.92
2018-12-29T13:39:17.060Z,74.68
2018-12-29T13:42:06.472Z,73.89
2018-12-29T13:44:55.678Z,72.54
2018-12-29T13:48:03.969Z,71.67
2018-12-29T13:50:53.356Z,71.01
2018-12-29T13:53:42.635Z,71.32
2018-12-29T13:56:32.289Z,71.60
2018-12-29T13:59:23.091Z,71.24
2018-12-29T14:02:12.344Z,70.90
2018-12-29T14:05:01.829Z,72.40
2018-12-29T14:07:51.048Z,75.49
2018-12-29T14:10:40.862Z,74.01
2018-12-29T14:13:10.864Z,75.33
2018-12-29T14:15:40.913Z,73.42
2018-12-29T14:18:11.039Z,76.54
2018-12-29T14:20:40.989Z,77.61
2018-12-29T14:23:10.923Z,74.54
2018-12-29T14:25:41.367Z,75.59
2018-12-29T14:28:11.277Z,74.76
2018-12-29T14:30:41.239Z,74.56
2018-12-29T14:33:11.508Z,74.60
2018-12-29T14:35:41.686Z,72.21
2018-12-29T14:38:31.053Z,71.61
2018-12-29T14:41:20.595Z,71.55
2018-12-29T14:43:50.481Z,72.77
2018-12-29T14:46:20.481Z,73.35
2018-12-29T14:48:50.391Z,72.84
2018-12-29T14:51:20.638Z,72.92
2018-12-29T14:53:50.669Z,74.02
2018-12-29T14:56:20.546Z,72.53
2018-12-29T14:58:50.604Z,71.30
2018-12-29T15:01:20.916Z,71.98
2018-12-29T15:03:50.829Z,71.85
2018-12-29T15:06:20.790Z,72.57
2018-12-29T15:08:50.829Z,72.37
2018-12-29T15:11:21.059Z,73.95
2018-12-29T15:13:50.970Z,72.87
2018-12-29T15:16:20.998Z,71.67
2018-12-29T15:18:51.185Z,75.45
2018-12-29T15:21:21.274Z,72.41
2018-12-29T15:23:51.528Z,71.99
2018-12-29T15:26:21.533Z,71.22
2018-12-29T15:28:52.223Z,71.15
2018-12-29T15:31:22.329Z,71.41
2018-12-29T15:33:52.569Z,71.77
2018-12-29T15:36:22.605Z,71.46
2018-12-29T15:38:52.760Z,71.31
2018-12-29T15:41:42.086Z,71.37
2018-12-29T15:44:31.411Z,71.35
2018-12-29T15:47:22.398Z,71.48
2018-12-29T15:50:13.328Z,71.71
2018-12-29T15:53:02.501Z,71.30
2018-12-29T15:55:52.046Z,71.24
2018-12-29T15:58:42.965Z,71.30
2018-12-29T16:01:33.872Z,70.63
2018-12-29T16:04:23.216Z,70.75
2018-12-29T16:07:12.523Z,70.79
2018-12-29T16:10:02.498Z,70.88
2018-12-29T16:12:51.699Z,70.99
2018-12-29T16:15:42.818Z,71.25
2018-12-29T16:18:32.013Z,72.05
2018-12-29T16:21:24.118Z,71.49
2018-12-29T16:24:13.350Z,71.13
2018-12-29T16:27:02.550Z,70.09
2018-12-29T16:29:51.771Z,72.25
2018-12-29T16:32:41.152Z,71.47
2018-12-29T16:35:30.486Z,70.41
2018-12-29T16:38:21.527Z,70.42
2018-12-29T16:41:10.710Z,70.89
2018-12-29T16:44:00.072Z,70.47
2018-12-29T16:46:49.340Z,71.00
2018-12-29T16:49:57.844Z,70.47
2018-12-29T16:52:49.017Z,70.63
2018-12-29T16:55:38.301Z,70.46
2018-12-29T16:58:29.376Z,70.50
2018-12-29T17:01:39.486Z,70.58
2018-12-29T17:04:29.070Z,70.83
2018-12-29T17:07:18.368Z,71.25
2018-12-29T17:10:26.739Z,71.72
2018-12-29T17:13:16.050Z,70.66
2018-12-29T17:16:05.519Z,72.68
2018-12-29T17:18:48.171Z,71.96
2018-12-29T17:21:37.388Z,71.86
2018-12-29T17:24:28.355Z,69.24
2018-12-29T17:27:19.334Z,69.12
2018-12-29T17:30:08.634Z,69.96
2018-12-29T17:32:58.423Z,69.62
2018-12-29T17:35:28.679Z,69.57
2018-12-29T17:37:58.906Z,68.40
2018-12-29T17:40:29.013Z,68.64
2018-12-29T17:42:59.263Z,72.53
2018-12-29T17:45:29.515Z,71.37
2018-12-29T17:48:00.500Z,70.81
2018-12-29T17:50:33.116Z,69.18
2018-12-29T17:53:22.748Z,69.56
2018-12-29T17:56:12.070Z,70.01
2018-12-29T17:59:01.511Z,68.64
2018-12-29T18:01:50.770Z,71.52
2018-12-29T18:04:40.029Z,69.32
2018-12-29T18:07:29.219Z,68.78
2018-12-29T18:10:18.514Z,68.29
2018-12-29T18:13:07.808Z,67.48
2018-12-29T18:15:56.992Z,67.13
2018-12-29T18:18:39.443Z,67.65
2018-12-29T18:21:28.666Z,67.94
2018-12-29T18:24:17.844Z,67.94
2018-12-29T18:27:07.145Z,69.89
2018-12-29T18:30:15.433Z,67.91
2018-12-29T18:33:04.598Z,67.48
2018-12-29T18:35:53.759Z,68.22
2018-12-29T18:38:43.024Z,68.47
2018-12-29T18:41:32.242Z,68.20
2018-12-29T18:44:21.609Z,67.20
2018-12-29T18:47:12.593Z,67.54
2018-12-29T18:50:02.116Z,66.34
2018-12-29T18:52:51.412Z,65.35
2018-12-29T18:55:44.252Z,65.28
2018-12-29T18:58:34.948Z,66.87
2018-12-29T19:04:19.746Z,67.93
2018-12-29T19:07:09.196Z,66.20
2018-12-29T19:09:58.853Z,67.50
2018-12-29T19:12:51.634Z,67.50
2018-12-29T19:15:40.881Z,68.10
2018-12-29T19:18:30.364Z,69.52
2018-12-29T19:21:21.240Z,67.90
2018-12-29T19:24:33.319Z,68.38
2018-12-29T19:27:03.385Z,68.70
2018-12-29T19:29:52.804Z,69.93
2018-12-29T19:35:38.007Z,70.27
2018-12-29T19:38:27.210Z,71.39
2018-12-29T19:41:18.083Z,71.93
2018-12-29T19:44:09.105Z,70.08
2018-12-29T19:47:00.205Z,70.48
2018-12-29T19:49:53.852Z,71.39
2018-12-29T19:52:42.308Z,72.05
2018-12-29T19:55:31.521Z,70.57
2018-12-29T19:58:20.777Z,71.19
2018-12-29T20:01:10.461Z,71.01
2018-12-29T20:03:59.704Z,70.54
2018-12-29T20:07:08.679Z,70.28
2018-12-29T20:09:57.929Z,71.42
2018-12-29T20:12:47.191Z,70.45
2018-12-29T20:15:36.774Z,70.82
2018-12-29T20:18:26.086Z,70.75
2018-12-29T20:21:15.322Z,70.95
2018-12-29T20:24:04.545Z,70.38
2018-12-29T20:26:54.205Z,70.71
2018-12-29T20:29:43.965Z,71.58
2018-12-29T20:32:58.924Z,70.67
2018-12-29T20:35:44.366Z,70.79
2018-12-29T20:38:35.513Z,70.27
2018-12-29T20:42:06.922Z,71.34
2018-12-29T20:44:56.171Z,70.53
2018-12-29T20:47:45.472Z,72.34
2018-12-29T20:50:34.870Z,71.72
2018-12-29T20:53:24.366Z,72.05
2018-12-29T20:56:13.568Z,71.22
2018-12-29T20:59:02.878Z,71.04
2018-12-29T21:01:52.242Z,71.71
2018-12-29T21:04:41.737Z,72.88
2018-12-29T21:10:39.169Z,71.83
2018-12-29T21:13:30.289Z,71.47
2018-12-29T21:16:19.615Z,71.12
2018-12-29T21:19:03.649Z,72.88
2018-12-29T21:21:52.926Z,71.02
2018-12-29T21:24:42.179Z,71.17
2018-12-29T21:31:00.547Z,70.21
2018-12-29T21:33:50.117Z,71.23
2018-12-29T21:36:39.475Z,71.42
2018-12-29T21:39:28.730Z,71.07
2018-12-29T21:42:18.014Z,71.33
2018-12-29T21:45:07.568Z,71.04
2018-12-29T21:47:56.863Z,71.57
2018-12-29T21:50:46.154Z,71.14
2018-12-29T21:53:35.463Z,72.32
2018-12-29T21:56:43.779Z,71.99
2018-12-29T21:59:33.081Z,70.86
2018-12-29T22:02:24.028Z,73.43
2018-12-29T22:05:13.310Z,71.63
2018-12-29T22:08:03.113Z,72.96
2018-12-29T22:10:52.418Z,73.64
2018-12-29T22:13:43.314Z,71.72
2018-12-29T22:16:32.531Z,71.42
2018-12-29T22:19:16.713Z,71.60
2018-12-29T22:22:05.906Z,71.11
2018-12-29T22:24:55.399Z,71.91
2018-12-29T22:27:44.608Z,70.52
2018-12-29T22:30:33.810Z,74.00
2018-12-29T22:33:23.004Z,72.23
2018-12-29T22:36:12.212Z,71.06
2018-12-29T22:39:01.473Z,73.06
2018-12-29T22:41:50.774Z,72.89
2018-12-29T22:44:39.998Z,71.58
2018-12-29T22:47:29.165Z,72.07
2018-12-29T22:50:18.433Z,77.88
2018-12-29T22:53:07.655Z,74.10
2018-12-29T22:55:37.645Z,73.88
2018-12-29T22:58:08.689Z,74.39
2018-12-29T23:00:43.409Z,72.21
2018-12-29T23:03:13.637Z,71.34
2018-12-29T23:05:43.527Z,72.55
2018-12-29T23:08:13.825Z,73.75
2018-12-29T23:10:43.959Z,72.33
2018-12-29T23:13:14.088Z,71.85
2018-12-29T23:16:03.291Z,71.18
2018-12-29T23:18:45.615Z,73.61
2018-12-29T23:21:34.814Z,73.58
2018-12-29T23:24:25.771Z,72.34
2018-12-29T23:27:15.210Z,72.47
2018-12-29T23:33:33.109Z,73.72
2018-12-29T23:36:22.301Z,73.16
2018-12-29T23:39:13.539Z,72.78
2018-12-29T23:41:45.333Z,77.42
2018-12-29T23:44:15.257Z,72.93
2018-12-29T23:47:23.503Z,73.83
2018-12-29T23:50:12.863Z,72.64
2018-12-29T23:53:04.164Z,73.59
2018-12-29T23:55:55.509Z,76.24
2018-12-29T23:58:44.765Z,76.82
